Time;durP1;ratioP1;P1;durP2;ratioP2;P2;SDS_P1;SDS_P2;PMS_P1;PMS_P2;Temp;Humidity;BMP_temperature;BMP_pressure;BME280_temperature;BME280_humidity;BME280_pressure;Samples;Min_cycle;Max_cycle;Signal;HPM_P1;HPM_P2
2023/01/08 00:01:20;;;;;;;53.47;25.45;;;2.50;99.90;;;;;;4956009;28;20086;-63
2023/01/08 00:03:47;;;;;;;50.08;22.85;;;2.60;99.90;;;;;;4964269;28;20474;-64
2023/01/08 00:06:17;;;;;;;56.10;25.08;;;2.50;99.90;;;;;;4954815;28;20062;-71
2023/01/08 00:08:44;;;;;;;45.30;23.92;;;2.50;99.90;;;;;;4953193;28;20470;-63
2023/01/08 00:11:12;;;;;;;47.83;24.85;;;2.60;99.90;;;;;;4957121;28;20050;-64
2023/01/08 00:13:39;;;;;;;53.47;25.35;;;2.60;99.90;;;;;;4949678;28;20055;-68
2023/01/08 00:16:09;;;;;;;46.80;22.63;;;2.60;99.90;;;;;;4971691;28;20447;-63
2023/01/08 00:18:36;;;;;;;49.22;23.25;;;2.60;99.90;;;;;;4952814;28;20524;-62
2023/01/08 00:21:04;;;;;;;48.15;24.00;;;2.60;99.90;;;;;;4955572;28;20418;-63
2023/01/08 00:23:31;;;;;;;43.72;22.50;;;2.70;99.90;;;;;;4954412;28;20222;-67
2023/01/08 00:26:02;;;;;;;51.10;25.05;;;2.70;99.90;;;;;;4952096;28;20456;-62
2023/01/08 00:28:29;;;;;;;52.55;23.67;;;2.70;99.90;;;;;;4951049;28;20051;-62
2023/01/08 00:30:56;;;;;;;42.53;21.48;;;2.70;99.90;;;;;;4952115;28;20055;-64
2023/01/08 00:33:24;;;;;;;46.75;23.05;;;2.70;99.90;;;;;;4956274;28;20520;-63
2023/01/08 00:35:50;;;;;;;45.92;22.73;;;2.80;99.90;;;;;;4952903;28;20062;-66
2023/01/08 00:38:17;;;;;;;45.53;21.63;;;2.80;99.90;;;;;;4947679;28;20055;-62
2023/01/08 00:40:46;;;;;;;42.17;21.30;;;2.80;99.90;;;;;;4953098;28;20051;-63
2023/01/08 00:43:13;;;;;;;47.60;20.55;;;2.80;99.90;;;;;;4952896;28;20359;-62
2023/01/08 00:45:41;;;;;;;55.00;22.77;;;2.80;99.90;;;;;;4958073;28;20392;-63
2023/01/08 00:48:09;;;;;;;40.75;20.40;;;2.80;99.90;;;;;;4952622;28;20043;-65
2023/01/08 00:50:36;;;;;;;48.97;22.92;;;2.80;99.90;;;;;;4953101;28;20433;-64
2023/01/08 00:53:03;;;;;;;48.83;20.92;;;2.80;99.90;;;;;;4954784;28;20055;-64
2023/01/08 00:55:30;;;;;;;50.20;19.23;;;2.80;99.90;;;;;;4951180;28;20051;-63
2023/01/08 00:57:57;;;;;;;38.05;21.58;;;2.90;99.90;;;;;;4954778;28;20422;-63
2023/01/08 01:00:24;;;;;;;50.20;21.67;;;2.90;99.90;;;;;;4952201;28;20177;-66
2023/01/08 01:02:51;;;;;;;42.53;21.15;;;2.90;99.90;;;;;;4955665;28;20469;-64
2023/01/08 01:05:18;;;;;;;43.97;19.83;;;2.90;99.90;;;;;;4953796;28;20532;-65
2023/01/08 01:07:45;;;;;;;38.83;20.90;;;2.90;99.90;;;;;;4953383;28;20186;-66
2023/01/08 01:10:14;;;;;;;45.70;20.92;;;2.90;99.90;;;;;;4953253;28;20125;-64
2023/01/08 01:12:42;;;;;;;45.78;18.92;;;2.90;99.90;;;;;;4950935;28;20119;-64
2023/01/08 01:15:12;;;;;;;39.45;20.25;;;2.90;99.90;;;;;;4953826;28;20424;-64
2023/01/08 01:17:39;;;;;;;;;;;2.90;99.90;;;;;;4948439;28;20052;-63
2023/01/08 01:20:08;;;;;;;34.70;19.80;;;2.90;99.90;;;;;;4955941;28;19938;-64
2023/01/08 01:22:35;;;;;;;48.40;20.40;;;2.90;99.90;;;;;;4950343;28;20510;-67
2023/01/08 01:25:03;;;;;;;30.05;17.75;;;2.90;99.90;;;;;;4954634;28;20082;-64
2023/01/08 01:27:30;;;;;;;36.40;21.00;;;2.90;99.90;;;;;;4954594;28;20330;-68
2023/01/08 01:29:58;;;;;;;28.75;17.02;;;2.90;99.90;;;;;;4952618;28;20161;-63
2023/01/08 01:32:25;;;;;;;37.92;18.55;;;3.00;99.90;;;;;;4952450;28;20449;-66
2023/01/08 01:34:51;;;;;;;32.35;17.30;;;3.00;99.90;;;;;;4951656;28;20054;-65
2023/01/08 01:37:18;;;;;;;35.67;18.48;;;2.90;99.90;;;;;;4955271;28;20042;-63
2023/01/08 01:39:45;;;;;;;33.92;16.70;;;2.90;99.90;;;;;;4955527;28;20557;-64
2023/01/08 01:42:38;;;;;;;33.88;17.25;;;2.90;99.90;;;;;;4951073;28;20127;-65
2023/01/08 01:45:22;;;;;;;26.02;15.00;;;2.90;99.90;;;;;;4948244;28;20098;-69
2023/01/08 01:48:01;;;;;;;24.80;14.60;;;3.00;99.90;;;;;;4958509;28;20462;-65
2023/01/08 01:50:42;;;;;;;26.85;14.95;;;3.00;99.90;;;;;;4951046;28;20147;-63
2023/01/08 01:53:20;;;;;;;27.77;16.85;;;3.00;99.90;;;;;;4950264;28;20074;-67
2023/01/08 01:55:48;;;;;;;29.88;13.95;;;3.00;99.90;;;;;;4951378;28;20074;-68
2023/01/08 01:58:19;;;;;;;27.00;14.18;;;3.00;99.90;;;;;;4954986;28;20142;-67
2023/01/08 02:00:46;;;;;;;28.17;14.70;;;3.00;99.90;;;;;;4954418;28;20466;-70
2023/01/08 02:03:14;;;;;;;26.92;14.43;;;3.00;99.90;;;;;;4965503;28;20105;-62
2023/01/08 02:05:55;;;;;;;25.92;14.93;;;3.00;99.90;;;;;;4952504;28;20090;-65
2023/01/08 02:08:31;;;;;;;;;;;3.00;99.90;;;;;;4945893;28;20281;-63
2023/01/08 02:11:38;;;;;;;26.75;14.95;;;3.00;99.90;;;;;;4957523;28;19944;-63
2023/01/08 02:14:05;;;;;;;26.77;15.93;;;3.10;99.90;;;;;;4953773;28;20061;-66
2023/01/08 02:16:59;;;;;;;29.52;17.45;;;3.10;99.90;;;;;;4955197;28;20086;-67
2023/01/08 02:19:44;;;;;;;28.63;15.85;;;3.10;99.90;;;;;;4950910;28;20430;-65
2023/01/08 02:22:20;;;;;;;35.83;20.20;;;3.10;99.90;;;;;;4958854;28;20158;-63
2023/01/08 02:25:06;;;;;;;28.75;17.13;;;3.10;99.90;;;;;;4955034;28;20086;-62
2023/01/08 02:27:34;;;;;;;27.52;17.30;;;3.10;99.90;;;;;;4955841;28;20081;-66
2023/01/08 02:30:03;;;;;;;32.50;18.17;;;3.10;99.90;;;;;;4954606;28;20050;-66
2023/01/08 02:32:36;;;;;;;28.75;17.67;;;3.20;99.90;;;;;;4957475;28;20133;-68
2023/01/08 02:35:05;;;;;;;35.92;17.95;;;3.20;99.90;;;;;;4954032;28;20068;-66
2023/01/08 02:37:33;;;;;;;30.85;18.45;;;3.20;99.90;;;;;;4963359;28;20088;-69
2023/01/08 02:40:32;;;;;;;34.70;19.13;;;3.20;99.90;;;;;;4958712;28;20267;-66
2023/01/08 02:43:15;;;;;;;36.03;20.25;;;3.20;99.90;;;;;;4956671;28;20800;-64
2023/01/08 02:45:45;;;;;;;34.60;19.55;;;3.20;99.90;;;;;;4956973;28;20047;-65
2023/01/08 02:48:34;;;;;;;40.50;19.63;;;3.20;99.90;;;;;;4954956;28;20055;-66
2023/01/08 02:51:14;;;;;;;33.75;18.20;;;3.20;99.90;;;;;;4954310;28;20161;-63
2023/01/08 02:53:45;;;;;;;31.80;18.25;;;3.30;99.90;;;;;;4953821;28;20047;-64
2023/01/08 02:56:25;;;;;;;28.65;16.23;;;3.30;99.90;;;;;;4960700;28;20150;-64
2023/01/08 02:58:54;;;;;;;30.42;17.38;;;3.30;99.90;;;;;;4946627;28;20061;-63
2023/01/08 03:01:23;;;;;;;30.48;16.25;;;3.30;99.90;;;;;;4958110;28;20051;-65
2023/01/08 03:03:55;;;;;;;26.33;14.82;;;3.30;99.90;;;;;;4958920;28;20058;-63
2023/01/08 03:06:22;;;;;;;28.35;17.35;;;3.30;99.90;;;;;;4954877;28;20091;-65
2023/01/08 03:08:52;;;;;;;23.38;15.38;;;3.30;99.90;;;;;;4956731;28;20480;-63
2023/01/08 03:11:21;;;;;;;29.60;16.23;;;3.30;99.90;;;;;;4952996;28;20137;-69
2023/01/08 03:14:17;;;;;;;23.33;15.65;;;3.30;99.90;;;;;;4952463;28;20058;-64
2023/01/08 03:16:47;;;;;;;24.52;14.85;;;3.30;99.90;;;;;;4953867;28;20511;-64
2023/01/08 03:19:22;;;;;;;30.42;17.20;;;3.30;99.90;;;;;;4953714;28;20086;-64
2023/01/08 03:21:50;;;;;;;23.92;15.43;;;3.40;99.90;;;;;;4954347;28;20394;-66
2023/01/08 03:24:25;;;;;;;30.30;16.73;;;3.40;99.90;;;;;;4957151;28;20517;-65
2023/01/08 03:26:56;;;;;;;29.00;14.82;;;3.40;99.90;;;;;;4952071;28;20059;-64
2023/01/08 03:29:25;;;;;;;27.60;17.13;;;3.40;99.90;;;;;;4952815;28;20047;-64
2023/01/08 03:31:58;;;;;;;23.38;16.02;;;3.40;99.90;;;;;;4949460;28;20066;-66
2023/01/08 03:34:29;;;;;;;29.48;16.15;;;3.40;99.90;;;;;;4953034;28;20150;-66
2023/01/08 03:36:57;;;;;;;;;;;3.50;99.90;;;;;;4954795;28;20061;-63
2023/01/08 03:39:38;;;;;;;22.23;14.80;;;3.50;99.90;;;;;;4953643;28;19926;-66
2023/01/08 03:42:08;;;;;;;28.35;14.60;;;3.50;99.90;;;;;;4956534;28;20050;-64
2023/01/08 03:44:35;;;;;;;25.88;14.38;;;3.50;99.90;;;;;;4945610;28;20528;-66
2023/01/08 03:47:03;;;;;;;19.63;14.27;;;3.50;99.90;;;;;;4958394;28;20055;-66
2023/01/08 03:49:30;;;;;;;21.75;12.40;;;3.50;99.90;;;;;;4956590;28;20050;-64
2023/01/08 03:51:57;;;;;;;20.83;12.70;;;3.60;99.90;;;;;;4953536;28;20098;-62
2023/01/08 03:54:29;;;;;;;21.48;12.93;;;3.60;99.90;;;;;;4948546;28;20438;-68
2023/01/08 03:56:57;;;;;;;18.55;11.38;;;3.60;99.90;;;;;;4951625;28;20047;-65
2023/01/08 03:59:23;;;;;;;20.08;12.40;;;3.60;99.90;;;;;;4960275;28;20047;-63
2023/01/08 04:01:50;;;;;;;18.40;11.80;;;3.70;99.90;;;;;;4955656;28;20059;-62
2023/01/08 04:04:17;;;;;;;14.50;10.20;;;3.70;99.90;;;;;;4955268;28;20053;-64
2023/01/08 04:06:45;;;;;;;17.00;10.15;;;3.70;99.90;;;;;;4952021;28;20050;-63
2023/01/08 04:09:11;;;;;;;14.20;9.73;;;3.70;99.90;;;;;;4955198;28;20051;-63
2023/01/08 04:11:38;;;;;;;14.45;10.02;;;3.80;99.90;;;;;;4951423;28;20051;-63
2023/01/08 04:14:05;;;;;;;16.98;10.48;;;3.80;99.90;;;;;;4955886;28;20059;-63
2023/01/08 04:16:33;;;;;;;17.75;11.27;;;3.90;99.90;;;;;;4948981;28;20671;-71
2023/01/08 04:19:00;;;;;;;16.30;10.25;;;3.90;99.90;;;;;;4958203;28;20059;-65
2023/01/08 04:21:27;;;;;;;17.48;11.07;;;3.90;99.90;;;;;;4956053;28;20516;-64
2023/01/08 04:23:54;;;;;;;14.50;8.98;;;3.90;99.90;;;;;;4955473;28;20047;-64
2023/01/08 04:26:21;;;;;;;17.48;10.70;;;3.90;99.90;;;;;;4952336;28;20053;-63
2023/01/08 04:28:48;;;;;;;18.27;10.07;;;3.90;99.90;;;;;;4954234;28;20047;-64
2023/01/08 04:31:14;;;;;;;17.40;11.70;;;3.90;99.90;;;;;;4948315;28;20036;-63
2023/01/08 04:33:41;;;;;;;17.30;10.00;;;3.90;99.90;;;;;;4958851;28;20134;-63
2023/01/08 04:36:08;;;;;;;18.08;11.23;;;3.90;99.90;;;;;;4954711;28;20519;-66
2023/01/08 04:38:35;;;;;;;14.48;9.68;;;4.00;99.90;;;;;;4953377;28;20105;-68
2023/01/08 04:41:02;;;;;;;16.67;9.85;;;3.90;99.90;;;;;;4949756;28;20062;-63
2023/01/08 04:43:30;;;;;;;20.50;10.02;;;4.00;99.90;;;;;;4955998;28;20055;-64
2023/01/08 04:45:58;;;;;;;14.88;9.20;;;4.00;99.90;;;;;;4955852;28;20432;-65
2023/01/08 04:48:26;;;;;;;13.43;7.50;;;4.00;99.90;;;;;;4954377;28;20087;-65
2023/01/08 04:50:53;;;;;;;9.70;7.18;;;4.00;99.90;;;;;;4948910;28;20099;-65
2023/01/08 04:53:20;;;;;;;13.70;8.73;;;4.00;99.90;;;;;;4952936;28;20061;-70
2023/01/08 04:55:46;;;;;;;11.27;6.93;;;4.00;99.90;;;;;;4955436;28;20507;-66
2023/01/08 04:58:13;;;;;;;14.50;7.82;;;4.10;99.90;;;;;;4953309;28;20636;-63
2023/01/08 05:00:40;;;;;;;12.50;7.57;;;4.10;99.90;;;;;;4953137;28;20047;-67
2023/01/08 05:03:07;;;;;;;15.02;7.78;;;4.10;99.90;;;;;;4952605;28;20154;-63
2023/01/08 05:05:34;;;;;;;13.73;8.90;;;4.10;99.90;;;;;;4952974;28;20114;-68
2023/01/08 05:08:01;;;;;;;15.15;8.73;;;4.10;99.90;;;;;;4948309;28;20113;-66
2023/01/08 05:10:28;;;;;;;14.68;8.98;;;4.10;99.90;;;;;;4956681;28;20082;-64
2023/01/08 05:13:01;;;;;;;15.65;9.55;;;4.10;99.90;;;;;;4957984;28;20051;-63
2023/01/08 05:15:28;;;;;;;13.00;8.68;;;4.20;99.90;;;;;;4951650;28;20142;-63
2023/01/08 05:18:00;;;;;;;20.40;10.73;;;4.20;99.90;;;;;;4954666;28;20054;-65
2023/01/08 05:20:27;;;;;;;17.17;9.48;;;4.20;99.90;;;;;;4949973;28;20316;-63
2023/01/08 05:22:55;;;;;;;19.25;10.48;;;4.20;99.90;;;;;;4956031;28;20059;-64
2023/01/08 05:25:22;;;;;;;26.75;12.52;;;4.20;99.90;;;;;;4955463;28;20089;-64
2023/01/08 05:27:49;;;;;;;36.03;16.67;;;4.20;99.90;;;;;;4953199;28;20051;-66
2023/01/08 05:30:16;;;;;;;37.22;17.38;;;4.20;99.90;;;;;;4948790;28;20138;-65
2023/01/08 05:32:43;;;;;;;47.92;17.92;;;4.30;99.90;;;;;;4954520;28;20055;-64
2023/01/08 05:35:10;;;;;;;36.85;17.95;;;4.30;99.90;;;;;;4949101;28;20051;-67
2023/01/08 05:37:37;;;;;;;32.00;17.00;;;4.30;99.90;;;;;;4950400;28;20113;-67
2023/01/08 05:40:05;;;;;;;37.10;19.67;;;4.30;99.90;;;;;;4957918;28;20055;-66
2023/01/08 05:42:34;;;;;;;35.60;17.63;;;4.30;99.90;;;;;;4952258;28;20130;-67
2023/01/08 05:45:05;;;;;;;42.97;20.88;;;4.40;99.90;;;;;;4951278;28;20122;-65
2023/01/08 05:47:33;;;;;;;43.10;19.10;;;4.40;99.90;;;;;;4951852;28;20054;-67
2023/01/08 05:50:00;;;;;;;40.58;19.75;;;4.30;99.90;;;;;;4953707;28;20098;-66
2023/01/08 05:52:27;;;;;;;48.95;20.15;;;4.30;99.90;;;;;;4951643;28;20086;-63
2023/01/08 05:54:54;;;;;;;55.20;24.35;;;4.30;99.90;;;;;;4956782;28;20058;-64
2023/01/08 05:57:21;;;;;;;53.92;23.13;;;4.30;99.90;;;;;;4956543;28;20175;-69
2023/01/08 05:59:48;;;;;;;46.65;22.70;;;4.40;99.90;;;;;;4956742;28;20672;-66
2023/01/08 06:02:15;;;;;;;59.28;24.55;;;4.40;99.90;;;;;;4946798;28;20137;-64
2023/01/08 06:04:42;;;;;;;49.90;24.33;;;4.40;99.90;;;;;;4952221;28;20555;-65
2023/01/08 06:07:09;;;;;;;62.30;24.23;;;4.40;99.90;;;;;;4955295;28;20679;-63
2023/01/08 06:09:36;;;;;;;60.58;25.98;;;4.40;99.90;;;;;;4954861;28;20047;-64
2023/01/08 06:12:03;;;;;;;55.30;24.90;;;4.40;99.90;;;;;;4949991;28;20057;-63
2023/01/08 06:14:30;;;;;;;62.25;24.98;;;4.40;99.90;;;;;;4949228;28;20576;-67
2023/01/08 06:16:57;;;;;;;56.08;25.20;;;4.40;99.90;;;;;;4953008;28;20085;-64
2023/01/08 06:19:24;;;;;;;55.65;24.63;;;4.40;99.90;;;;;;4950955;28;20143;-72
2023/01/08 06:21:51;;;;;;;64.63;26.25;;;4.40;99.90;;;;;;4953589;28;20162;-64
2023/01/08 06:24:18;;;;;;;69.13;26.77;;;4.40;99.90;;;;;;4952330;28;20074;-63
2023/01/08 06:26:44;;;;;;;60.35;25.50;;;4.40;99.90;;;;;;4953031;28;20055;-72
2023/01/08 06:29:11;;;;;;;55.17;23.67;;;4.40;99.90;;;;;;4951750;28;20055;-63
2023/01/08 06:31:38;;;;;;;51.47;23.80;;;4.50;99.90;;;;;;4949587;28;20230;-63
2023/01/08 06:34:05;;;;;;;54.38;26.88;;;4.40;99.90;;;;;;4955290;28;20160;-72
2023/01/08 06:36:32;;;;;;;59.03;26.48;;;4.40;99.90;;;;;;4953311;28;20155;-71
2023/01/08 06:38:59;;;;;;;48.58;25.95;;;4.40;99.90;;;;;;4952879;28;20245;-62
2023/01/08 06:41:26;;;;;;;48.67;24.80;;;4.40;99.90;;;;;;4954099;28;20047;-66
2023/01/08 06:43:52;;;;;;;53.00;23.63;;;4.40;99.90;;;;;;4951258;28;20051;-63
2023/01/08 06:46:19;;;;;;;50.47;24.30;;;4.50;99.90;;;;;;4956277;28;20832;-64
2023/01/08 06:48:46;;;;;;;52.17;22.08;;;4.50;99.90;;;;;;4954503;28;20947;-64
2023/01/08 06:51:13;;;;;;;51.22;24.75;;;4.50;99.90;;;;;;4953498;28;20057;-63
2023/01/08 06:53:40;;;;;;;63.38;26.25;;;4.50;99.90;;;;;;4951456;28;20146;-63
2023/01/08 06:56:09;;;;;;;73.28;32.58;;;4.50;99.90;;;;;;4951474;28;20154;-65
2023/01/08 06:58:37;;;;;;;64.68;29.42;;;4.40;99.90;;;;;;4948365;28;20047;-63
2023/01/08 07:01:05;;;;;;;68.88;28.08;;;4.50;99.90;;;;;;4959608;28;20055;-63
2023/01/08 07:03:32;;;;;;;66.53;28.45;;;4.50;99.90;;;;;;4956357;28;20046;-64
2023/01/08 07:06:01;;;;;;;63.90;29.65;;;4.50;99.90;;;;;;4953264;28;20070;-65
2023/01/08 07:08:28;;;;;;;62.85;29.58;;;4.50;99.90;;;;;;4950961;28;20094;-62
2023/01/08 07:10:55;;;;;;;67.13;28.83;;;4.50;99.90;;;;;;4960084;28;20054;-65
2023/01/08 07:13:23;;;;;;;56.20;28.00;;;4.50;99.90;;;;;;4955964;28;20478;-68
2023/01/08 07:15:50;;;;;;;66.70;30.17;;;4.50;99.90;;;;;;4956899;28;20067;-65
2023/01/08 07:18:16;;;;;;;62.70;27.92;;;4.50;99.90;;;;;;4950869;28;20086;-66
2023/01/08 07:20:43;;;;;;;71.28;30.38;;;4.50;99.90;;;;;;4954946;28;20161;-63
2023/01/08 07:23:10;;;;;;;69.80;28.85;;;4.50;99.90;;;;;;4953073;28;20149;-66
2023/01/08 07:25:37;;;;;;;59.42;29.13;;;4.50;99.90;;;;;;4968713;28;20051;-63
2023/01/08 07:28:04;;;;;;;68.25;31.30;;;4.50;99.90;;;;;;4958823;28;20182;-63
2023/01/08 07:30:31;;;;;;;69.43;31.48;;;4.50;99.90;;;;;;4954807;28;20062;-66
2023/01/08 07:33:00;;;;;;;70.30;32.90;;;4.50;99.90;;;;;;4956374;28;20236;-70
2023/01/08 07:35:27;;;;;;;70.35;32.40;;;4.60;99.90;;;;;;4955087;28;20059;-66
2023/01/08 07:37:55;;;;;;;61.60;31.00;;;4.50;99.90;;;;;;4953622;28;20047;-63
2023/01/08 07:40:21;;;;;;;73.63;34.05;;;4.60;99.90;;;;;;4957664;28;20054;-68
2023/01/08 07:42:59;;;;;;;70.78;31.33;;;4.60;99.90;;;;;;4954913;28;20043;-63
2023/01/08 07:45:27;;;;;;;72.05;31.88;;;4.60;99.90;;;;;;4957293;28;20055;-63
2023/01/08 07:47:57;;;;;;;80.85;33.03;;;4.50;99.90;;;;;;4957560;28;20098;-62
2023/01/08 07:50:24;;;;;;;61.78;31.13;;;4.50;99.90;;;;;;4952295;28;20416;-63
2023/01/08 07:52:51;;;;;;;65.07;30.75;;;4.50;99.90;;;;;;4959207;28;20055;-63
2023/01/08 07:55:18;;;;;;;82.30;34.13;;;4.50;99.90;;;;;;4956508;28;20062;-64
2023/01/08 07:57:45;;;;;;;78.00;35.05;;;4.50;99.90;;;;;;4951770;28;20067;-66
2023/01/08 08:00:13;;;;;;;73.07;35.47;;;4.50;99.90;;;;;;4951791;28;20370;-65
2023/01/08 08:02:40;;;;;;;73.10;33.70;;;4.60;99.90;;;;;;4950871;28;20121;-63
2023/01/08 08:05:07;;;;;;;77.10;34.63;;;4.60;99.90;;;;;;4952947;28;20050;-66
2023/01/08 08:07:35;;;;;;;72.82;31.58;;;4.60;99.90;;;;;;4956701;28;20061;-72
2023/01/08 08:10:03;;;;;;;72.97;31.88;;;4.60;99.90;;;;;;4955321;28;20067;-65
2023/01/08 08:12:30;;;;;;;79.20;34.95;;;4.60;99.90;;;;;;4954994;28;20473;-66
2023/01/08 08:14:57;;;;;;;72.38;32.47;;;4.60;99.90;;;;;;4958337;28;20406;-65
2023/01/08 08:17:25;;;;;;;80.68;33.90;;;4.60;99.90;;;;;;4953478;28;20053;-63
2023/01/08 08:19:52;;;;;;;71.60;34.17;;;4.60;99.90;;;;;;4954132;28;20114;-64
2023/01/08 08:22:19;;;;;;;71.28;33.55;;;4.60;99.90;;;;;;4955248;28;20804;-63
2023/01/08 08:24:46;;;;;;;73.57;31.45;;;4.60;99.90;;;;;;4955922;28;20051;-66
2023/01/08 08:27:13;;;;;;;75.82;35.92;;;4.60;99.90;;;;;;4955305;28;20053;-64
2023/01/08 08:29:39;;;;;;;63.28;32.90;;;4.60;99.90;;;;;;4952212;28;20078;-64
2023/01/08 08:32:06;;;;;;;63.75;32.67;;;4.60;99.90;;;;;;4957328;28;20158;-63
2023/01/08 08:34:33;;;;;;;58.10;30.83;;;4.60;99.90;;;;;;4954567;28;20368;-69
2023/01/08 08:37:00;;;;;;;66.45;30.00;;;4.60;99.90;;;;;;4955380;28;20055;-64
2023/01/08 08:39:27;;;;;;;58.88;30.42;;;4.60;99.90;;;;;;4954940;28;20055;-65
2023/01/08 08:41:54;;;;;;;60.92;29.13;;;4.50;99.90;;;;;;4956947;28;20047;-65
2023/01/08 08:44:21;;;;;;;55.20;28.73;;;4.60;99.90;;;;;;4952975;28;20098;-67
2023/01/08 08:46:47;;;;;;;60.80;31.42;;;4.50;99.90;;;;;;4953065;28;20047;-64
2023/01/08 08:49:14;;;;;;;58.20;29.50;;;4.60;99.90;;;;;;4954167;28;20051;-64
2023/01/08 08:51:41;;;;;;;49.95;28.02;;;4.60;99.90;;;;;;4958662;28;20061;-64
2023/01/08 08:54:09;;;;;;;53.05;26.50;;;4.60;99.90;;;;;;4955535;28;20073;-65
2023/01/08 08:56:36;;;;;;;68.75;29.20;;;4.60;99.90;;;;;;4951294;28;20053;-63
2023/01/08 08:59:03;;;;;;;54.13;27.63;;;4.70;99.90;;;;;;4950302;28;20073;-66
2023/01/08 09:01:30;;;;;;;51.60;26.67;;;4.60;99.90;;;;;;4954658;28;20160;-66
2023/01/08 09:03:57;;;;;;;52.53;27.55;;;4.70;99.90;;;;;;4954022;28;20059;-65
2023/01/08 09:06:26;;;;;;;53.88;26.40;;;4.70;99.90;;;;;;4953049;28;20150;-65
2023/01/08 09:08:53;;;;;;;57.60;27.58;;;4.70;99.90;;;;;;4949661;28;20082;-63
2023/01/08 09:11:20;;;;;;;50.42;27.20;;;4.70;99.90;;;;;;4955901;28;20059;-67
2023/01/08 09:13:47;;;;;;;44.63;27.48;;;4.70;99.90;;;;;;4957132;28;20134;-64
2023/01/08 09:16:14;;;;;;;48.05;28.65;;;4.70;99.90;;;;;;4957768;28;20500;-64
2023/01/08 09:18:41;;;;;;;54.33;28.30;;;4.70;99.90;;;;;;4950490;28;20505;-64
2023/01/08 09:21:08;;;;;;;53.70;28.63;;;4.80;99.90;;;;;;4952085;28;20047;-66
2023/01/08 09:23:35;;;;;;;51.25;25.65;;;4.70;99.90;;;;;;4952061;28;20167;-66
2023/01/08 09:26:04;;;;;;;49.03;26.25;;;4.70;99.90;;;;;;4955388;28;20134;-66
2023/01/08 09:28:31;;;;;;;52.22;28.63;;;4.70;99.90;;;;;;4949941;28;20047;-65
2023/01/08 09:31:04;;;;;;;46.70;29.00;;;4.70;99.90;;;;;;4957963;28;20073;-65
2023/01/08 09:33:32;;;;;;;46.00;27.98;;;4.70;99.90;;;;;;4954474;28;20101;-65
2023/01/08 09:35:58;;;;;;;48.42;27.20;;;4.70;99.90;;;;;;4953045;28;20051;-72
2023/01/08 09:38:25;;;;;;;50.15;30.50;;;4.70;99.90;;;;;;4948757;28;20042;-63
2023/01/08 09:41:07;;;;;;;50.30;31.00;;;4.70;99.90;;;;;;4951671;28;20058;-62
2023/01/08 09:43:37;;;;;;;46.60;26.98;;;4.70;99.90;;;;;;4951241;28;20142;-65
2023/01/08 09:46:06;;;;;;;53.38;30.13;;;4.70;99.90;;;;;;4952134;28;20130;-63
2023/01/08 09:48:36;;;;;;;49.03;28.50;;;4.70;99.90;;;;;;4953418;28;20089;-70
2023/01/08 09:51:06;;;;;;;50.57;27.43;;;4.70;99.90;;;;;;4951118;28;20054;-64
2023/01/08 09:53:32;;;;;;;54.25;31.95;;;4.80;99.90;;;;;;4952684;28;20042;-67
2023/01/08 09:56:03;;;;;;;59.78;31.73;;;4.80;99.90;;;;;;4949983;28;20516;-72
2023/01/08 09:58:40;;;;;;;53.53;29.10;;;4.80;99.90;;;;;;4953516;28;20078;-66
2023/01/08 10:01:11;;;;;;;55.72;30.02;;;4.80;99.90;;;;;;4949655;28;20101;-65
2023/01/08 10:03:42;;;;;;;51.47;28.58;;;4.80;99.90;;;;;;4951463;28;20054;-65
2023/01/08 10:06:11;;;;;;;54.97;30.08;;;4.80;99.90;;;;;;4953992;28;20054;-63
2023/01/08 10:08:39;;;;;;;51.80;28.40;;;4.80;99.90;;;;;;4948645;28;20061;-70
2023/01/08 10:11:08;;;;;;;45.38;26.73;;;4.80;99.90;;;;;;4956149;28;20055;-66
2023/01/08 10:13:40;;;;;;;48.72;27.83;;;4.80;99.90;;;;;;4956686;28;20406;-63
2023/01/08 10:16:10;;;;;;;62.60;33.83;;;4.80;99.90;;;;;;4954556;28;20169;-64
2023/01/08 10:18:39;;;;;;;48.77;29.67;;;4.80;99.90;;;;;;4951091;28;20050;-65
2023/01/08 10:21:12;;;;;;;50.28;29.05;;;4.80;99.90;;;;;;4948668;28;20293;-63
2023/01/08 10:23:49;;;;;;;51.67;30.80;;;4.70;99.90;;;;;;4955425;28;20559;-64
2023/01/08 10:26:37;;;;;;;54.22;31.27;;;4.80;99.90;;;;;;4950075;28;20146;-64
2023/01/08 10:29:10;;;;;;;55.40;34.55;;;4.70;99.90;;;;;;4953694;28;20133;-63
2023/01/08 10:31:50;;;;;;;59.85;31.52;;;4.70;99.90;;;;;;4952018;28;20082;-64
2023/01/08 10:34:31;;;;;;;54.20;30.42;;;4.70;99.90;;;;;;4956279;28;20055;-63
2023/01/08 10:36:59;;;;;;;55.95;30.65;;;4.70;99.90;;;;;;4954768;28;20272;-69
2023/01/08 10:39:28;;;;;;;60.10;33.47;;;4.70;99.90;;;;;;4957526;28;20053;-63
2023/01/08 10:42:03;;;;;;;49.75;30.80;;;4.70;99.90;;;;;;4956169;28;20130;-63
2023/01/08 10:44:31;;;;;;;56.47;32.83;;;4.70;99.90;;;;;;4950276;28;20134;-68
2023/01/08 10:47:00;;;;;;;53.85;32.63;;;4.70;99.90;;;;;;4957273;28;20050;-63
2023/01/08 10:49:42;;;;;;;55.55;33.85;;;4.70;99.90;;;;;;4953862;28;20062;-68
2023/01/08 10:52:28;;;;;;;50.92;32.30;;;4.70;99.90;;;;;;4953757;28;20074;-64
2023/01/08 10:54:55;;;;;;;56.10;32.92;;;4.70;99.90;;;;;;4958418;28;20055;-70
2023/01/08 10:57:22;;;;;;;59.45;35.35;;;4.70;99.90;;;;;;4959728;28;20513;-64
2023/01/08 10:59:48;;;;;;;47.63;29.20;;;4.70;99.90;;;;;;4959749;28;20074;-65
2023/01/08 11:02:28;;;;;;;51.45;28.50;;;4.70;99.90;;;;;;4957662;28;20142;-66
2023/01/08 11:04:56;;;;;;;56.22;31.33;;;4.70;99.90;;;;;;4969675;28;20046;-63
2023/01/08 11:07:23;;;;;;;60.47;36.10;;;4.60;99.90;;;;;;4957379;28;20066;-63
2023/01/08 11:09:52;;;;;;;49.15;32.13;;;4.60;99.90;;;;;;4957677;28;20083;-66
2023/01/08 11:12:39;;;;;;;57.95;33.97;;;4.60;99.90;;;;;;4958107;28;20141;-63
2023/01/08 11:15:27;;;;;;;56.58;31.25;;;4.60;99.90;;;;;;4957394;28;20437;-63
2023/01/08 11:17:54;;;;;;;59.13;32.60;;;4.60;99.90;;;;;;4953031;28;20051;-64
2023/01/08 11:20:29;;;;;;;62.60;34.83;;;4.60;99.90;;;;;;4949340;28;20051;-66
2023/01/08 11:23:19;;;;;;;60.58;34.20;;;4.60;99.90;;;;;;4953672;28;20117;-63
2023/01/08 11:26:13;;;;;;;55.90;30.95;;;4.60;99.90;;;;;;4956440;28;20271;-63
2023/01/08 11:28:58;;;;;;;62.67;37.55;;;4.60;99.90;;;;;;4949890;28;20069;-62
2023/01/08 11:31:49;;;;;;;71.43;35.17;;;4.60;99.90;;;;;;4953662;28;20051;-63
2023/01/08 11:34:25;;;;;;;64.13;35.00;;;4.60;99.90;;;;;;4954055;28;20140;-63
2023/01/08 11:37:16;;;;;;;64.80;33.55;;;4.60;99.90;;;;;;4953949;28;20599;-64
2023/01/08 11:39:44;;;;;;;65.68;33.95;;;4.60;99.90;;;;;;4942865;28;20058;-65
2023/01/08 11:42:20;;;;;;;73.72;35.30;;;4.60;99.90;;;;;;4955775;28;20055;-70
2023/01/08 11:44:57;;;;;;;72.95;36.58;;;4.60;99.90;;;;;;4952645;28;20051;-65
2023/01/08 11:47:54;;;;;;;69.90;34.13;;;4.60;99.90;;;;;;4951788;28;20054;-69
2023/01/08 11:50:31;;;;;;;61.45;34.72;;;4.60;99.90;;;;;;4952723;28;20055;-65
2023/01/08 11:53:40;;;;;;;70.82;37.13;;;4.60;99.90;;;;;;4951655;28;20075;-66
2023/01/08 11:56:34;;;;;;;75.45;37.13;;;4.60;99.90;;;;;;4952922;28;20403;-63
2023/01/08 11:59:35;;;;;;;73.65;35.30;;;4.70;99.90;;;;;;4948897;28;20689;-70
2023/01/08 12:02:33;;;;;;;74.57;35.85;;;4.60;99.90;;;;;;4950091;28;20091;-63
2023/01/08 12:05:26;;;;;;;74.57;36.67;;;4.60;99.90;;;;;;4951959;28;20047;-63
2023/01/08 12:08:02;;;;;;;73.35;37.70;;;4.60;99.90;;;;;;4955112;28;20059;-64
2023/01/08 12:11:04;;;;;;;84.38;39.58;;;4.60;99.90;;;;;;4945580;28;20179;-65
2023/01/08 12:13:37;;;;;;;81.07;37.90;;;4.60;99.90;;;;;;4954320;28;20115;-67
2023/01/08 12:16:20;;;;;;;74.00;36.30;;;4.60;99.90;;;;;;4953006;28;20930;-64
2023/01/08 12:19:21;;;;;;;80.22;39.45;;;4.60;99.90;;;;;;4951363;28;20051;-67
2023/01/08 12:22:27;;;;;;;72.38;37.17;;;4.60;99.90;;;;;;4929044;28;20138;-64
2023/01/08 12:25:30;;;;;;;77.05;37.20;;;4.60;99.90;;;;;;4951167;28;20444;-66
2023/01/08 12:28:00;;;;;;;71.78;35.97;;;4.60;99.90;;;;;;4964025;28;20046;-63
2023/01/08 12:30:50;;;;;;;71.25;36.78;;;4.60;99.90;;;;;;4954792;28;21410;-69
2023/01/08 12:33:36;;;;;;;67.85;36.25;;;4.60;99.90;;;;;;4951752;28;20399;-63
2023/01/08 12:36:09;;;;;;;71.45;36.17;;;4.60;99.90;;;;;;4949898;28;20089;-64
2023/01/08 12:38:42;;;;;;;81.05;40.63;;;4.60;99.90;;;;;;4954381;28;20078;-66
2023/01/08 12:41:18;;;;;;;74.35;37.88;;;4.60;99.90;;;;;;4952432;28;20054;-64
2023/01/08 12:44:04;;;;;;;72.38;38.17;;;4.60;99.90;;;;;;4949462;28;20047;-63
2023/01/08 12:46:35;;;;;;;75.15;40.67;;;4.60;99.90;;;;;;4951741;28;20498;-63
2023/01/08 12:49:04;;;;;;;85.05;37.03;;;4.60;99.90;;;;;;4954872;28;20449;-63
2023/01/08 12:51:57;;;;;;;67.72;38.42;;;4.60;99.90;;;;;;4955866;28;20477;-67
2023/01/08 12:54:47;;;;;;;73.50;35.85;;;4.60;99.90;;;;;;4949756;28;20046;-64
2023/01/08 12:57:30;;;;;;;;;;;4.60;99.90;;;;;;4953997;28;20051;-64
2023/01/08 13:00:32;;;;;;;81.45;41.80;;;4.60;99.90;;;;;;4954217;28;19926;-70